createdAt,value
2023-01-15T00:02:44.427Z,97956.06
2023-01-15T00:06:45.842Z,97937.56
2023-01-15T00:10:47.321Z,97936.78
2023-01-15T00:14:50.065Z,97931.06
2023-01-15T00:18:52.744Z,97919.59
2023-01-15T00:22:54.314Z,97914.13
2023-01-15T00:26:55.727Z,97926.09
2023-01-15T00:30:58.540Z,97919.25
2023-01-15T00:35:00.327Z,97892.75
2023-01-15T00:39:01.739Z,97880.72
2023-01-15T00:43:03.193Z,97880.97
2023-01-15T00:47:05.947Z,97867.09
2023-01-15T00:51:07.455Z,97860.00
2023-01-15T00:55:09.391Z,97854.19
2023-01-15T00:59:11.050Z,97857.22
2023-01-15T01:03:13.792Z,97853.38
2023-01-15T01:07:15.371Z,97846.81
2023-01-15T01:11:18.930Z,97839.09
2023-01-15T01:15:20.758Z,97830.34
2023-01-15T01:19:25.427Z,97811.97
2023-01-15T01:23:26.809Z,97823.00
2023-01-15T01:27:28.231Z,97818.84
2023-01-15T01:31:29.970Z,97799.13
2023-01-15T01:35:33.363Z,97808.94
2023-01-15T01:39:34.790Z,97801.03
2023-01-15T01:43:52.757Z,97811.63
2023-01-15T01:47:55.992Z,97812.75
2023-01-15T01:52:03.159Z,97801.78
2023-01-15T01:56:08.417Z,97807.25
2023-01-15T02:00:11.015Z,97800.97
2023-01-15T02:04:13.878Z,97795.19
2023-01-15T02:08:16.605Z,97791.91
2023-01-15T02:12:24.864Z,97787.78
2023-01-15T02:16:32.892Z,97782.53
2023-01-15T02:20:39.528Z,97774.94
2023-01-15T02:24:59.451Z,97768.31
2023-01-15T02:29:05.752Z,97779.75
2023-01-15T02:33:12.693Z,97774.31
2023-01-15T02:37:20.555Z,97764.50
2023-01-15T02:41:28.645Z,97763.88
2023-01-15T02:45:34.910Z,97762.78
2023-01-15T02:49:39.372Z,97744.00
2023-01-15T02:53:44.427Z,97742.56
2023-01-15T02:57:48.745Z,97732.75
2023-01-15T03:01:56.301Z,97743.09
2023-01-15T03:06:01.951Z,97739.34
2023-01-15T03:10:05.621Z,97733.31
2023-01-15T03:14:12.821Z,97721.22
2023-01-15T03:18:19.898Z,97717.38
2023-01-15T03:22:26.089Z,97711.88
2023-01-15T03:26:27.591Z,97707.94
2023-01-15T03:30:29.481Z,97696.72
2023-01-15T03:34:37.876Z,97696.38
2023-01-15T03:38:40.691Z,97677.28
2023-01-15T03:42:50.258Z,97677.50
2023-01-15T03:47:02.321Z,97680.53
2023-01-15T03:51:11.529Z,97679.94
2023-01-15T03:55:17.079Z,97680.31
2023-01-15T03:59:23.017Z,97674.22
2023-01-15T04:03:25.978Z,97674.56
2023-01-15T04:07:28.807Z,97677.22
2023-01-15T04:11:30.345Z,97679.03
2023-01-15T04:15:31.894Z,97682.84
2023-01-15T04:19:33.399Z,97678.22
2023-01-15T04:23:36.111Z,97668.09
2023-01-15T04:27:37.544Z,97665.03
2023-01-15T04:31:38.938Z,97655.44
2023-01-15T04:35:40.363Z,97647.94
2023-01-15T04:39:43.139Z,97652.81
2023-01-15T04:43:44.687Z,97644.84
2023-01-15T04:47:46.093Z,97624.38
2023-01-15T04:51:47.673Z,97629.75
2023-01-15T04:55:50.400Z,97621.41
2023-01-15T04:59:51.822Z,97611.41
2023-01-15T05:03:53.355Z,97609.66
2023-01-15T05:07:54.742Z,97606.22
2023-01-15T05:11:57.659Z,97602.09
2023-01-15T05:16:08.366Z,97618.09
2023-01-15T05:20:11.077Z,97623.91
2023-01-15T05:24:14.916Z,97604.38
2023-01-15T05:28:17.660Z,97599.72
2023-01-15T05:32:19.140Z,97595.88
2023-01-15T05:36:23.513Z,97601.84
2023-01-15T05:40:24.941Z,97594.13
2023-01-15T05:44:29.518Z,97595.44
2023-01-15T05:48:30.901Z,97594.59
2023-01-15T05:52:32.337Z,97605.22
2023-01-15T05:56:35.315Z,97608.28
2023-01-15T06:00:38.040Z,97603.72
2023-01-15T06:04:39.460Z,97592.75
2023-01-15T06:08:41.078Z,97589.03
2023-01-15T06:12:42.498Z,97580.19
2023-01-15T06:16:45.417Z,97586.47
2023-01-15T06:20:46.803Z,97602.03
2023-01-15T06:24:48.212Z,97643.59
2023-01-15T06:28:49.605Z,97672.56
2023-01-15T06:32:52.320Z,97689.88
2023-01-15T06:36:53.759Z,97734.88
2023-01-15T06:40:55.149Z,97762.66
2023-01-15T06:44:56.551Z,97758.16
2023-01-15T06:48:59.280Z,97791.88
2023-01-15T06:53:00.714Z,97812.44
2023-01-15T06:57:02.214Z,97828.91
2023-01-15T07:01:08.564Z,97835.34
2023-01-15T07:05:11.336Z,97826.16
2023-01-15T07:09:12.910Z,97820.31
2023-01-15T07:13:14.290Z,97817.78
2023-01-15T07:17:15.782Z,97838.66
2023-01-15T07:21:18.842Z,97824.69
2023-01-15T07:25:20.252Z,97840.44
2023-01-15T07:29:21.892Z,97835.84
2023-01-15T07:33:23.264Z,97848.03
2023-01-15T07:37:28.526Z,97856.56
2023-01-15T07:41:30.078Z,97873.94
2023-01-15T07:45:31.627Z,97884.47
2023-01-15T07:49:33.086Z,97898.44
2023-01-15T07:53:35.875Z,97913.72
2023-01-15T07:57:37.604Z,97913.19
2023-01-15T08:01:39.075Z,97927.13
2023-01-15T08:05:40.539Z,97936.34
2023-01-15T08:09:49.827Z,97941.53
2023-01-15T08:13:54.422Z,97942.31
2023-01-15T08:17:55.836Z,97946.56
2023-01-15T08:21:57.259Z,97956.16
2023-01-15T08:26:00.593Z,97967.94
2023-01-15T08:30:02.336Z,97966.41
2023-01-15T08:34:03.744Z,97973.13
2023-01-15T08:38:05.790Z,97956.81
2023-01-15T08:42:08.557Z,97945.41
2023-01-15T08:46:10.068Z,97941.53
2023-01-15T08:50:11.826Z,97925.66
2023-01-15T08:54:13.249Z,97935.84
2023-01-15T08:58:16.741Z,97968.34
2023-01-15T09:02:18.187Z,97979.50
2023-01-15T09:06:19.599Z,97980.34
2023-01-15T09:10:21.367Z,97989.69
2023-01-15T09:14:57.836Z,97971.19
2023-01-15T09:18:45.706Z,97967.53
2023-01-15T09:22:47.233Z,97969.03
2023-01-15T09:26:48.660Z,97976.50
2023-01-15T09:30:51.575Z,97982.34
2023-01-15T09:34:53.064Z,97978.50
2023-01-15T09:38:54.627Z,97955.25
2023-01-15T09:43:02.731Z,97965.03
2023-01-15T09:47:11.297Z,97964.63
2023-01-15T09:51:23.080Z,97960.88
2023-01-15T09:55:27.251Z,97967.44
2023-01-15T09:59:34.935Z,97946.44
2023-01-15T10:03:43.489Z,97965.13
2023-01-15T10:07:53.208Z,97963.00
2023-01-15T10:11:58.874Z,97946.25
2023-01-15T10:16:00.929Z,97957.34
2023-01-15T10:20:04.350Z,97969.91
2023-01-15T10:24:13.499Z,97974.88
2023-01-15T10:28:22.566Z,97981.94
2023-01-15T10:32:35.649Z,97989.50
2023-01-15T10:36:42.239Z,97978.25
2023-01-15T10:40:59.769Z,97981.53
2023-01-15T10:45:11.543Z,98007.09
2023-01-15T10:49:15.454Z,98004.84
2023-01-15T10:53:29.272Z,98007.09
2023-01-15T10:57:42.449Z,98007.06
2023-01-15T11:01:44.057Z,98002.44
2023-01-15T11:05:45.628Z,98011.66
2023-01-15T11:09:48.450Z,98024.31
2023-01-15T11:13:54.172Z,98006.91
2023-01-15T11:17:55.642Z,98020.84
2023-01-15T11:21:57.131Z,98006.84
2023-01-15T11:26:00.488Z,98008.06
2023-01-15T11:30:06.078Z,98004.59
2023-01-15T11:34:21.588Z,98003.53
2023-01-15T11:38:23.829Z,97990.16
2023-01-15T11:42:26.559Z,98000.50
2023-01-15T11:46:30.955Z,98002.31
2023-01-15T11:50:32.404Z,98018.16
2023-01-15T11:54:38.904Z,98014.56
2023-01-15T11:58:46.251Z,97999.94
2023-01-15T12:02:50.848Z,97998.53
2023-01-15T12:06:52.426Z,98027.63
2023-01-15T12:11:08.907Z,98026.00
2023-01-15T12:15:33.021Z,98017.44
2023-01-15T12:19:42.733Z,98021.22
2023-01-15T12:24:10.698Z,98002.13
2023-01-15T12:28:15.859Z,97984.38
2023-01-15T12:32:22.542Z,97983.38
2023-01-15T12:36:28.850Z,97980.22
2023-01-15T12:40:40.458Z,97985.66
2023-01-15T12:44:47.256Z,97989.09
2023-01-15T12:48:55.276Z,97994.19
2023-01-15T12:53:01.213Z,97991.72
2023-01-15T12:57:09.692Z,97997.97
2023-01-15T13:01:17.882Z,98013.84
2023-01-15T13:05:27.096Z,98018.38
2023-01-15T13:09:38.036Z,98023.16
2023-01-15T13:13:41.984Z,98025.78
2023-01-15T13:17:59.621Z,98012.25
2023-01-15T13:22:08.986Z,98023.09
2023-01-15T13:26:24.962Z,98017.13
2023-01-15T13:30:47.726Z,98007.31
2023-01-15T13:34:52.743Z,98016.56
2023-01-15T13:38:58.654Z,98021.47
2023-01-15T13:43:01.349Z,98036.94
2023-01-15T13:47:05.807Z,98038.84
2023-01-15T13:51:23.706Z,98028.28
2023-01-15T13:55:31.056Z,98037.84
2023-01-15T13:59:42.570Z,98034.59
2023-01-15T14:03:58.070Z,98026.00
2023-01-15T14:08:00.671Z,98024.25
2023-01-15T14:12:14.208Z,98015.13
2023-01-15T14:16:27.452Z,98018.50
2023-01-15T14:20:38.867Z,98035.13
2023-01-15T14:25:01.883Z,98052.56
2023-01-15T14:29:28.007Z,98079.69
2023-01-15T14:33:42.005Z,98076.88
2023-01-15T14:37:48.399Z,98092.88
2023-01-15T14:41:57.092Z,98096.50
2023-01-15T14:46:12.617Z,98109.75
2023-01-15T14:50:29.898Z,98090.06
2023-01-15T14:54:32.951Z,98102.03
2023-01-15T14:58:45.796Z,98090.34
2023-01-15T15:02:49.328Z,98090.09
2023-01-15T15:06:54.177Z,98099.81
2023-01-15T15:10:58.184Z,98096.97
2023-01-15T15:15:04.749Z,98116.72
2023-01-15T15:19:14.896Z,98112.88
2023-01-15T15:23:22.284Z,98118.63
2023-01-15T15:27:24.315Z,98120.81
2023-01-15T15:31:27.255Z,98121.84
2023-01-15T15:35:32.098Z,98119.78
2023-01-15T15:39:41.065Z,98159.88
2023-01-15T15:43:47.975Z,98157.63
2023-01-15T15:47:49.428Z,98166.59
2023-01-15T15:51:53.773Z,98188.09
2023-01-15T15:55:57.867Z,98175.38
2023-01-15T16:00:00.326Z,98183.59
2023-01-15T16:04:02.937Z,98210.13
2023-01-15T16:08:17.496Z,98167.84
2023-01-15T16:12:19.372Z,98185.28
2023-01-15T16:16:21.493Z,98170.66
2023-01-15T16:20:23.376Z,98195.41
2023-01-15T16:24:28.672Z,98194.03
2023-01-15T16:28:38.319Z,98212.88
2023-01-15T16:32:41.908Z,98221.91
2023-01-15T16:36:43.358Z,98228.63
2023-01-15T16:40:46.694Z,98236.88
2023-01-15T16:44:52.510Z,98242.28
2023-01-15T16:49:19.880Z,98243.78
2023-01-15T16:53:39.959Z,98257.47
2023-01-15T16:57:42.712Z,98263.69
2023-01-15T17:01:45.906Z,98256.88
2023-01-15T17:05:49.270Z,98269.69
2023-01-15T17:09:53.158Z,98262.03
2023-01-15T17:14:09.720Z,98256.25
2023-01-15T17:18:28.456Z,98254.91
2023-01-15T17:22:32.297Z,98253.34
2023-01-15T17:26:34.185Z,98255.53
2023-01-15T17:30:37.036Z,98268.22
2023-01-15T17:34:38.486Z,98278.56
2023-01-15T17:38:39.882Z,98303.81
2023-01-15T17:42:41.332Z,98282.91
2023-01-15T17:46:44.238Z,98289.50
2023-01-15T17:50:45.723Z,98286.88
2023-01-15T17:54:47.138Z,98285.53
2023-01-15T17:58:48.707Z,98279.78
2023-01-15T18:02:51.593Z,98268.22
2023-01-15T18:06:55.980Z,98267.00
2023-01-15T18:10:57.399Z,98275.28
2023-01-15T18:14:58.784Z,98282.53
2023-01-15T18:19:01.581Z,98280.63
2023-01-15T18:23:02.987Z,98273.97
2023-01-15T18:27:04.424Z,98278.94
2023-01-15T18:31:06.722Z,98294.16
2023-01-15T18:35:10.074Z,98278.75
2023-01-15T18:39:11.510Z,98272.34
2023-01-15T18:43:12.917Z,98267.50
2023-01-15T18:47:16.116Z,98264.53
2023-01-15T18:51:18.841Z,98273.94
2023-01-15T18:55:22.052Z,98259.03
2023-01-15T18:59:23.446Z,98251.25
2023-01-15T19:03:24.850Z,98239.38
2023-01-15T19:07:27.605Z,98229.88
2023-01-15T19:11:29.407Z,98250.34
2023-01-15T19:15:31.047Z,98244.06
2023-01-15T19:19:32.485Z,98255.88
2023-01-15T19:23:35.217Z,98238.56
2023-01-15T19:27:36.619Z,98242.53
2023-01-15T19:31:38.056Z,98247.09
2023-01-15T19:35:39.493Z,98238.22
2023-01-15T19:39:42.578Z,98223.00
2023-01-15T19:43:43.994Z,98225.22
2023-01-15T19:47:45.455Z,98211.34
2023-01-15T19:51:46.855Z,98212.25
2023-01-15T19:55:49.748Z,98226.28
2023-01-15T19:59:51.186Z,98216.56
2023-01-15T20:03:52.610Z,98218.22
2023-01-15T20:07:54.255Z,98204.09
2023-01-15T20:11:57.003Z,98206.22
2023-01-15T20:15:58.657Z,98212.72
2023-01-15T20:20:00.144Z,98207.38
2023-01-15T20:24:01.592Z,98201.50
2023-01-15T20:28:04.623Z,98191.03
2023-01-15T20:32:06.112Z,98191.75
2023-01-15T20:36:08.613Z,98208.34
2023-01-15T20:40:11.326Z,98201.66
2023-01-15T20:44:14.097Z,98202.34
2023-01-15T20:48:15.513Z,98211.91
2023-01-15T20:52:16.923Z,98198.44
2023-01-15T20:56:18.703Z,98204.47
2023-01-15T21:00:22.978Z,98203.88
2023-01-15T21:04:24.459Z,98178.00
2023-01-15T21:08:25.978Z,98178.72
2023-01-15T21:12:27.376Z,98182.56
2023-01-15T21:16:30.261Z,98175.63
2023-01-15T21:20:31.705Z,98177.63
2023-01-15T21:24:33.389Z,98183.03
2023-01-15T21:28:34.804Z,98192.59
2023-01-15T21:32:37.593Z,98185.28
2023-01-15T21:36:38.994Z,98194.94
2023-01-15T21:40:40.434Z,98196.59
2023-01-15T21:44:42.003Z,98195.84
2023-01-15T21:48:44.742Z,98203.28
2023-01-15T21:52:46.329Z,98201.25
2023-01-15T21:56:47.729Z,98209.53
2023-01-15T22:00:49.185Z,98206.13
2023-01-15T22:04:51.959Z,98212.16
2023-01-15T22:08:53.855Z,98218.66
2023-01-15T22:12:55.240Z,98218.13
2023-01-15T22:16:58.795Z,98209.94
2023-01-15T22:21:03.433Z,98209.69
2023-01-15T22:25:05.789Z,98215.09
2023-01-15T22:29:07.191Z,98219.78
2023-01-15T22:33:08.600Z,98210.53
2023-01-15T22:37:13.307Z,98210.09
2023-01-15T22:41:14.713Z,98208.88
2023-01-15T22:45:16.132Z,98198.97
2023-01-15T22:49:17.531Z,98208.00
2023-01-15T22:53:20.279Z,98203.19
2023-01-15T22:57:21.993Z,98200.09
2023-01-15T23:01:24.003Z,98201.00
2023-01-15T23:05:25.680Z,98186.66
2023-01-15T23:09:28.456Z,98198.19
2023-01-15T23:13:30.824Z,98190.22
2023-01-15T23:17:32.232Z,98181.75
2023-01-15T23:21:33.872Z,98177.28
2023-01-15T23:25:36.599Z,98172.34
2023-01-15T23:29:50.219Z,98174.19
2023-01-15T23:33:52.079Z,98176.56
2023-01-15T23:37:53.478Z,98176.06
2023-01-15T23:41:56.229Z,98179.34
2023-01-15T23:45:57.714Z,98162.88
2023-01-15T23:49:59.132Z,98159.94
2023-01-15T23:54:01.485Z,98153.94
2023-01-15T23:58:04.250Z,98150.84
